createdAt,value
2022-08-30T00:06:46.250Z,1.7
2022-08-30T00:21:55.834Z,2.1
2022-08-30T00:37:04.968Z,1.7
2022-08-30T00:52:14.470Z,1.6
2022-08-30T01:07:23.061Z,1.7
2022-08-30T01:22:32.318Z,1.9
2022-08-30T01:37:41.481Z,1.6
2022-08-30T01:52:50.810Z,1.8
2022-08-30T02:07:59.835Z,2.2
2022-08-30T02:23:09.316Z,2.2
2022-08-30T02:38:20.294Z,2.6
2022-08-30T02:53:29.941Z,2.2
2022-08-30T03:08:40.512Z,3
2022-08-30T03:23:49.449Z,2.7
2022-08-30T03:38:58.652Z,3.1
2022-08-30T03:54:08.161Z,3.2
2022-08-30T04:09:17.139Z,4.1
2022-08-30T04:24:26.288Z,5.5
2022-08-30T04:39:35.390Z,5.6
2022-08-30T04:54:44.581Z,6.2
2022-08-30T05:09:54.109Z,6.6
2022-08-30T05:25:05.040Z,6.9
2022-08-30T05:40:14.616Z,5.3
2022-08-30T05:55:25.946Z,5.7
2022-08-30T06:10:35.677Z,5.9
2022-08-30T06:25:45.587Z,7.3
2022-08-30T06:40:55.169Z,7.8
2022-08-30T06:56:04.928Z,7.6
2022-08-30T07:11:14.170Z,5.6
2022-08-30T07:26:26.757Z,5
2022-08-30T07:41:36.374Z,5.6
2022-08-30T07:56:45.541Z,6.1
2022-08-30T08:11:55.314Z,8.1
2022-08-30T08:27:05.071Z,7.9
2022-08-30T08:42:14.528Z,5.4
2022-08-30T08:57:24.942Z,6.4
2022-08-30T09:12:34.870Z,5.7
2022-08-30T09:27:44.883Z,4.9
2022-08-30T09:42:56.004Z,4.2
2022-08-30T09:58:06.420Z,4.6
2022-08-30T10:13:16.264Z,6.2
2022-08-30T10:28:29.591Z,6
2022-08-30T10:43:39.283Z,5.1
2022-08-30T10:58:50.954Z,14
2022-08-30T11:14:06.051Z,4.4
2022-08-30T11:29:16.250Z,3.8
2022-08-30T11:44:27.291Z,2.4
2022-08-30T11:59:38.465Z,2.1
2022-08-30T12:14:49.473Z,2.6
2022-08-30T12:29:59.610Z,4.9
2022-08-30T12:45:09.183Z,1.6
2022-08-30T13:00:21.373Z,2.4
2022-08-30T13:15:30.903Z,1.8
2022-08-30T13:30:41.007Z,1.7
2022-08-30T13:45:51.340Z,1.6
2022-08-30T14:01:02.383Z,1.7
2022-08-30T14:16:28.468Z,1.4
2022-08-30T14:31:38.125Z,1.5
2022-08-30T14:46:47.489Z,1.7
2022-08-30T15:01:55.896Z,1.4
2022-08-30T15:17:05.170Z,1.5
2022-08-30T15:32:15.879Z,1.5
2022-08-30T15:47:27.495Z,1.6
2022-08-30T16:02:39.252Z,1.3
2022-08-30T16:17:48.615Z,1.3
2022-08-30T16:32:57.474Z,1.2
2022-08-30T16:48:07.172Z,1.3
2022-08-30T17:03:17.456Z,1.2
2022-08-30T17:18:30.708Z,1.1
2022-08-30T17:33:42.171Z,1.5
2022-08-30T17:49:01.490Z,1.2
2022-08-30T18:04:10.848Z,1.2
2022-08-30T18:19:20.966Z,1.2
2022-08-30T18:34:30.302Z,1.1
2022-08-30T18:49:39.397Z,1.3
2022-08-30T19:04:48.546Z,1.5
2022-08-30T19:19:57.675Z,1.5
2022-08-30T19:35:07.095Z,1.4
2022-08-30T19:50:16.980Z,1.5
2022-08-30T20:05:26.863Z,1.7
2022-08-30T20:20:37.249Z,1.8
2022-08-30T20:35:50.001Z,1.3
2022-08-30T20:50:59.319Z,1.5
2022-08-30T21:06:08.174Z,1.6
2022-08-30T21:21:17.725Z,1.4
2022-08-30T21:36:27.905Z,1.7
2022-08-30T21:51:36.963Z,1.4
2022-08-30T22:06:46.111Z,1.3
2022-08-30T22:22:01.801Z,1.1
2022-08-30T22:37:11.615Z,1.4
2022-08-30T22:52:25.435Z,1.4
2022-08-30T23:07:34.846Z,1.2
2022-08-30T23:22:44.182Z,1.3
2022-08-30T23:37:53.660Z,1.3
2022-08-30T23:53:02.304Z,1.6
